Time;durP1;ratioP1;P1;durP2;ratioP2;P2;SDS_P1;SDS_P2;PMS_P1;PMS_P2;Temp;Humidity;BMP_temperature;BMP_pressure;BME280_temperature;BME280_humidity;BME280_pressure;Samples;Min_cycle;Max_cycle;Signal;HPM_P1;HPM_P2
2022/07/18 00:02:09;;;;;;;1.88;0.90;;;;;;;18.68;76.61;101812.44;5011303;28;20042;-65
2022/07/18 00:04:34;;;;;;;4.70;1.10;;;;;;;18.51;77.84;101802.19;5009985;28;20030;-65
2022/07/18 00:07:00;;;;;;;1.80;1.13;;;;;;;18.47;78.11;101807.63;5012273;28;20030;-65
2022/07/18 00:09:25;;;;;;;2.47;0.95;;;;;;;18.51;78.00;101815.84;5010981;28;20662;-65
2022/07/18 00:11:52;;;;;;;1.77;1.10;;;;;;;18.38;79.10;101809.09;5012169;28;20566;-65
2022/07/18 00:14:19;;;;;;;1.77;1.08;;;;;;;18.45;78.47;101803.72;5011882;28;20057;-65
2022/07/18 00:16:45;;;;;;;1.50;0.98;;;;;;;18.44;79.34;101796.69;5011955;28;20116;-65
2022/07/18 00:19:10;;;;;;;1.70;0.80;;;;;;;18.33;79.28;101793.09;5010434;28;20117;-65
2022/07/18 00:21:36;;;;;;;3.88;0.90;;;;;;;18.29;80.21;101798.50;5011942;28;20038;-65
2022/07/18 00:24:02;;;;;;;1.35;0.80;;;;;;;18.25;80.85;101788.75;5012012;28;20064;-65
2022/07/18 00:26:27;;;;;;;1.60;1.10;;;;;;;18.20;80.44;101787.16;5011866;28;20048;-65
2022/07/18 00:28:53;;;;;;;2.35;0.95;;;;;;;18.16;81.24;101785.53;4972838;28;20038;-65
2022/07/18 00:31:18;;;;;;;1.20;1.02;;;;;;;18.27;80.72;101791.88;4992252;28;20053;-65
2022/07/18 00:33:44;;;;;;;1.92;1.00;;;;;;;18.28;80.47;101783.31;4997166;28;20052;-65
2022/07/18 00:36:10;;;;;;;1.25;0.77;;;;;;;18.06;80.78;101787.03;5011677;28;20104;-65
2022/07/18 00:38:35;;;;;;;2.03;1.00;;;;;;;18.09;81.60;101780.03;5009922;28;20035;-65
2022/07/18 00:41:01;;;;;;;1.35;1.10;;;;;;;18.23;81.14;101791.06;5011596;28;20112;-65
2022/07/18 00:43:26;;;;;;;2.53;1.00;;;;;;;18.34;80.74;101786.47;5011574;28;20072;-65
2022/07/18 00:45:52;;;;;;;1.23;0.90;;;;;;;18.35;80.36;101788.06;5010942;28;20104;-65
2022/07/18 00:48:18;;;;;;;2.15;0.88;;;;;;;18.38;80.36;101779.88;5010697;28;20080;-65
2022/07/18 00:50:45;;;;;;;1.77;1.10;;;;;;;18.50;80.08;101779.59;5011522;28;20494;-65
2022/07/18 00:53:11;;;;;;;1.45;0.90;;;;;;;18.37;80.51;101783.00;5011357;28;20049;-65
2022/07/18 00:55:43;;;;;;;1.17;0.85;;;;;;;18.49;80.55;101783.47;5010890;28;20080;-65
2022/07/18 00:58:10;;;;;;;1.08;0.80;;;;;;;18.50;80.46;101779.59;5010493;28;20052;-66
2022/07/18 01:03:20;;;;;;;3.28;1.10;;;;;;;18.46;80.83;101780.75;5008255;28;20042;-65
2022/07/18 01:05:46;;;;;;;1.70;1.00;;;;;;;18.53;80.26;101786.22;5011636;28;20026;-65
2022/07/18 01:08:11;;;;;;;1.25;0.77;;;;;;;18.47;80.08;101793.22;5010667;28;20038;-65
2022/07/18 01:10:37;;;;;;;3.30;1.20;;;;;;;18.45;79.81;101793.59;5010596;28;20028;-65
2022/07/18 01:13:02;;;;;;;1.15;0.90;;;;;;;18.25;80.78;101781.34;5010632;28;20034;-65
2022/07/18 01:15:28;;;;;;;2.33;0.90;;;;;;;18.10;82.08;101784.34;5011170;28;20049;-65
2022/07/18 01:17:53;;;;;;;1.95;1.17;;;;;;;18.14;81.78;101785.94;5010336;28;20037;-65
2022/07/18 01:20:19;;;;;;;1.52;1.10;;;;;;;18.13;81.69;101789.03;5010657;28;20022;-64
2022/07/18 01:22:44;;;;;;;1.45;0.90;;;;;;;18.15;81.45;101779.31;5011000;28;20118;-65
2022/07/18 01:25:11;;;;;;;2.05;1.17;;;;;;;18.21;81.31;101777.03;5011143;28;20437;-65
2022/07/18 01:27:37;;;;;;;2.53;1.00;;;;;;;18.23;81.19;101780.94;5009658;28;20088;-65
2022/07/18 01:30:04;;;;;;;1.52;0.90;;;;;;;18.00;81.51;101788.56;5011281;28;20026;-64
2022/07/18 01:32:30;;;;;;;1.48;1.02;;;;;;;18.16;81.86;101780.88;5010548;28;20046;-65
2022/07/18 01:34:56;;;;;;;1.15;0.80;;;;;;;18.02;81.78;101786.25;5010525;28;20029;-65
2022/07/18 01:37:22;;;;;;;3.20;1.25;;;;;;;18.01;81.93;101798.28;5010425;28;20084;-65
2022/07/18 01:39:48;;;;;;;1.50;1.17;;;;;;;17.92;82.32;101790.41;5010439;28;20139;-65
2022/07/18 01:42:14;;;;;;;1.48;0.88;;;;;;;17.85;83.06;101784.91;5010637;28;20501;-66
2022/07/18 01:44:40;;;;;;;1.33;1.10;;;;;;;17.90;82.88;101790.00;5007430;28;20069;-65
2022/07/18 01:47:07;;;;;;;2.33;1.65;;;;;;;17.78;83.40;101787.59;4991177;28;20120;-65
2022/07/18 01:49:34;;;;;;;1.80;1.30;;;;;;;17.73;83.52;101779.72;4990345;28;20022;-65
2022/07/18 01:52:00;;;;;;;1.48;1.20;;;;;;;17.60;84.89;101774.94;4991296;28;20046;-65
2022/07/18 01:54:28;;;;;;;1.83;1.08;;;;;;;17.50;85.11;101768.22;4984228;28;20033;-65
2022/07/18 01:56:55;;;;;;;1.83;0.90;;;;;;;17.69;84.83;101770.75;4991159;28;20490;-65
2022/07/18 01:59:21;;;;;;;1.60;1.10;;;;;;;17.77;84.47;101775.09;4990388;28;20062;-65
2022/07/18 02:01:47;;;;;;;1.85;0.95;;;;;;;17.86;84.65;101775.59;4991433;28;20081;-65
2022/07/18 02:04:13;;;;;;;1.75;1.02;;;;;;;17.85;84.74;101770.50;4988788;28;20495;-65
2022/07/18 02:06:38;;;;;;;3.08;1.20;;;;;;;17.88;84.77;101777.94;4991287;28;20038;-65
2022/07/18 02:09:06;;;;;;;4.10;1.20;;;;;;;17.83;84.64;101779.06;4990091;28;20165;-65
2022/07/18 02:11:32;;;;;;;3.13;1.10;;;;;;;17.74;84.97;101777.81;4991408;28;20038;-65
2022/07/18 02:13:57;;;;;;;1.80;1.10;;;;;;;17.72;85.58;101770.00;4991282;28;20061;-65
2022/07/18 02:16:23;;;;;;;2.03;1.27;;;;;;;17.76;85.75;101765.38;4991393;28;20076;-65
2022/07/18 02:18:48;;;;;;;1.77;1.33;;;;;;;17.76;85.61;101772.75;5000392;28;20088;-66
2022/07/18 02:21:14;;;;;;;2.03;1.23;;;;;;;17.68;86.31;101761.00;5010383;28;20046;-65
2022/07/18 02:23:40;;;;;;;1.83;1.10;;;;;;;17.78;85.85;101754.09;5010729;28;20045;-65
2022/07/18 02:26:07;;;;;;;1.67;1.30;;;;;;;17.72;86.17;101755.59;5012652;28;20029;-65
2022/07/18 02:28:32;;;;;;;1.55;1.00;;;;;;;17.75;85.92;101761.06;5012757;28;20042;-65
2022/07/18 02:30:58;;;;;;;3.72;1.30;;;;;;;17.70;86.60;101758.69;5014190;28;20509;-65
2022/07/18 02:33:24;;;;;;;2.38;1.38;;;;;;;17.44;87.42;101749.84;5013661;28;20112;-65
2022/07/18 02:35:49;;;;;;;1.80;1.13;;;;;;;17.51;87.50;101761.63;5013215;28;20045;-65
2022/07/18 02:38:15;;;;;;;3.45;1.25;;;;;;;17.51;87.31;101761.63;5013070;28;20034;-65
2022/07/18 02:40:40;;;;;;;2.83;1.20;;;;;;;17.53;88.10;101753.88;5013845;28;20069;-65
2022/07/18 02:43:06;;;;;;;2.58;1.20;;;;;;;17.38;88.15;101751.34;5013373;28;20115;-65
2022/07/18 02:45:31;;;;;;;1.95;1.10;;;;;;;17.32;89.25;101748.19;4994996;28;20121;-65
2022/07/18 02:47:57;;;;;;;4.47;1.48;;;;;;;17.43;88.56;101754.50;4992576;28;20038;-65
2022/07/18 02:50:23;;;;;;;1.85;1.33;;;;;;;17.52;87.98;101751.50;4994132;28;20176;-65
2022/07/18 02:52:50;;;;;;;3.80;1.50;;;;;;;17.51;87.87;101750.75;5006858;28;20046;-65
2022/07/18 02:55:16;;;;;;;3.63;1.25;;;;;;;17.51;87.96;101756.19;5013584;28;20433;-65
2022/07/18 02:57:42;;;;;;;2.53;1.15;;;;;;;17.41;88.16;101751.38;5012815;28;20038;-65
2022/07/18 03:00:10;;;;;;;1.85;1.20;;;;;;;17.36;88.46;101754.44;5012743;28;20517;-65
2022/07/18 03:02:36;;;;;;;1.15;0.93;;;;;;;17.50;88.37;101760.06;5011821;28;20525;-65
2022/07/18 03:05:03;;;;;;;2.08;1.17;;;;;;;17.46;88.53;101761.94;5013094;28;20029;-65
2022/07/18 03:07:28;;;;;;;1.65;1.10;;;;;;;17.43;88.03;101765.41;5012734;28;20099;-65
2022/07/18 03:09:54;;;;;;;1.80;1.10;;;;;;;17.55;87.77;101765.19;5000546;28;20038;-65
2022/07/18 03:12:19;;;;;;;3.55;1.52;;;;;;;17.65;87.31;101766.44;4993689;28;20043;-65
2022/07/18 03:14:45;;;;;;;2.42;1.30;;;;;;;17.58;87.84;101758.19;4993809;28;20045;-65
2022/07/18 03:17:10;;;;;;;3.15;1.23;;;;;;;17.55;87.81;101762.44;4993536;28;20041;-65
2022/07/18 03:19:37;;;;;;;2.85;1.48;;;;;;;17.63;87.23;101755.91;4992337;28;20081;-65
2022/07/18 03:22:03;;;;;;;3.75;1.30;;;;;;;17.67;87.14;101753.97;4993574;28;20049;-65
2022/07/18 03:24:29;;;;;;;1.75;1.20;;;;;;;17.71;87.26;101754.81;4993563;28;20046;-65
2022/07/18 03:26:55;;;;;;;2.53;1.13;;;;;;;17.63;87.61;101761.38;5002224;28;20120;-65
2022/07/18 03:29:21;;;;;;;2.45;1.50;;;;;;;17.70;87.95;101755.19;5011973;28;20068;-65
2022/07/18 03:31:47;;;;;;;4.57;1.48;;;;;;;17.71;88.05;101762.97;5012806;28;20073;-65
2022/07/18 03:34:13;;;;;;;2.35;1.55;;;;;;;17.63;88.64;101763.31;5012612;28;20045;-65
2022/07/18 03:36:39;;;;;;;2.33;1.63;;;;;;;17.75;88.24;101763.78;5012130;28;20068;-65
2022/07/18 03:39:06;;;;;;;1.98;1.35;;;;;;;17.73;88.49;101757.94;5011838;28;20037;-64
2022/07/18 03:41:31;;;;;;;4.70;1.50;;;;;;;17.84;87.92;101749.88;5012909;28;20140;-65
2022/07/18 03:43:57;;;;;;;3.67;1.75;;;;;;;17.86;87.67;101750.28;5012482;28;20120;-65
2022/07/18 03:46:23;;;;;;;2.38;1.20;;;;;;;17.98;87.20;101758.94;5012203;28;20069;-65
2022/07/18 03:48:48;;;;;;;2.30;1.30;;;;;;;18.08;86.87;101751.22;5011401;28;20041;-65
2022/07/18 03:51:14;;;;;;;2.38;1.48;;;;;;;18.10;86.78;101751.63;5012233;28;20029;-65
2022/07/18 03:53:40;;;;;;;1.67;1.15;;;;;;;17.89;87.25;101731.22;5012076;28;20509;-65
2022/07/18 03:56:05;;;;;;;2.42;1.42;;;;;;;17.91;87.52;101728.09;5012701;28;20072;-65
2022/07/18 03:58:31;;;;;;;2.10;1.52;;;;;;;17.91;87.22;101722.66;5011367;28;20073;-65
2022/07/18 04:00:56;;;;;;;2.38;1.40;;;;;;;17.94;86.95;101717.22;5012056;28;20041;-65
2022/07/18 04:03:22;;;;;;;3.30;1.38;;;;;;;18.03;86.71;101725.88;5006334;28;20033;-65
2022/07/18 04:05:48;;;;;;;2.00;1.35;;;;;;;18.13;86.48;101729.03;5012500;28;20486;-65
2022/07/18 04:08:14;;;;;;;1.40;1.08;;;;;;;18.25;85.82;101726.03;5011391;28;20080;-65
2022/07/18 04:10:39;;;;;;;3.53;1.60;;;;;;;18.28;85.97;101738.88;5011873;28;20029;-65
2022/07/18 04:13:06;;;;;;;5.97;1.48;;;;;;;18.32;86.15;101740.47;5011886;28;20065;-65
2022/07/18 04:15:32;;;;;;;3.97;1.40;;;;;;;18.35;86.28;101744.41;5012015;28;20045;-65
2022/07/18 04:17:58;;;;;;;2.38;1.40;;;;;;;18.39;85.10;101754.16;5010811;28;20046;-65
2022/07/18 04:20:24;;;;;;;3.17;1.30;;;;;;;18.48;85.01;101746.47;4997455;28;20041;-65
2022/07/18 04:22:58;;;;;;;2.03;1.33;;;;;;;18.52;85.04;101746.47;4999721;28;20415;-65
2022/07/18 04:25:26;;;;;;;1.88;1.27;;;;;;;18.50;85.64;101746.06;5012264;28;20482;-65
2022/07/18 04:27:53;;;;;;;2.97;1.75;;;;;;;18.55;85.30;101743.75;5011007;28;20514;-65
2022/07/18 04:30:21;;;;;;;3.42;1.40;;;;;;;18.64;85.22;101737.97;5004988;28;20030;-65
2022/07/18 04:32:47;;;;;;;2.85;1.40;;;;;;;18.51;84.44;101731.25;4991948;28;20026;-65
2022/07/18 04:35:12;;;;;;;4.25;1.60;;;;;;;18.43;83.80;101729.66;5009450;28;20091;-65
2022/07/18 04:37:39;;;;;;;1.70;1.27;;;;;;;18.30;84.71;101723.72;5010406;28;20025;-65
2022/07/18 04:40:06;;;;;;;4.05;1.48;;;;;;;18.46;83.61;101729.69;5011273;28;20088;-65
2022/07/18 04:42:32;;;;;;;2.72;1.50;;;;;;;18.53;83.81;101728.94;5011550;28;20080;-65
2022/07/18 04:44:58;;;;;;;3.53;1.50;;;;;;;18.66;84.16;101739.13;5011443;28;20449;-65
2022/07/18 04:47:24;;;;;;;2.97;1.38;;;;;;;18.35;84.77;101723.34;5009758;28;20139;-65
2022/07/18 04:49:50;;;;;;;2.85;1.35;;;;;;;18.40;83.59;101723.00;5011241;28;20033;-65
2022/07/18 04:52:15;;;;;;;4.00;1.60;;;;;;;18.20;85.00;101723.63;5011404;28;20029;-65
2022/07/18 04:54:41;;;;;;;3.83;1.60;;;;;;;18.44;84.02;101714.84;5010870;28;20494;-64
2022/07/18 04:57:06;;;;;;;1.50;1.27;;;;;;;18.31;84.69;101711.63;4991650;28;20108;-64
2022/07/18 04:59:32;;;;;;;2.40;1.65;;;;;;;18.51;83.06;101709.44;4990683;28;20172;-65
2022/07/18 05:01:57;;;;;;;3.25;1.80;;;;;;;18.40;83.77;101714.03;4991588;28;20076;-65
2022/07/18 05:04:23;;;;;;;3.05;1.48;;;;;;;18.65;84.14;101713.03;5004440;28;20048;-65
2022/07/18 05:06:48;;;;;;;1.52;1.15;;;;;;;18.91;83.08;101722.88;5011256;28;20037;-65
2022/07/18 05:09:14;;;;;;;1.75;1.35;;;;;;;19.00;82.68;101726.03;5010445;28;20037;-65
2022/07/18 05:11:39;;;;;;;3.08;1.40;;;;;;;18.95;83.53;101723.66;5011338;28;20475;-65
2022/07/18 05:14:05;;;;;;;2.35;1.35;;;;;;;19.14;82.75;101731.53;4993810;28;20041;-65
2022/07/18 05:16:30;;;;;;;2.08;1.40;;;;;;;19.24;82.42;101735.47;4991608;28;20415;-65
2022/07/18 05:18:56;;;;;;;1.90;1.60;;;;;;;19.34;81.45;101727.31;4990627;28;20538;-65
2022/07/18 05:21:22;;;;;;;5.70;1.45;;;;;;;19.59;79.80;101708.97;4994825;28;20387;-65
2022/07/18 05:23:47;;;;;;;1.80;1.10;;;;;;;19.48;78.90;101719.13;5011169;28;20557;-65
2022/07/18 05:26:13;;;;;;;3.40;1.20;;;;;;;19.45;79.04;101713.66;5011011;28;20062;-64
2022/07/18 05:28:38;;;;;;;3.67;1.23;;;;;;;19.36;78.85;101716.78;5010327;28;20121;-65
2022/07/18 05:31:04;;;;;;;4.32;1.52;;;;;;;19.51;78.54;101714.84;5008312;28;20033;-65
2022/07/18 05:33:29;;;;;;;1.90;1.20;;;;;;;19.62;78.18;101721.88;4994914;28;20084;-65
2022/07/18 05:35:55;;;;;;;2.92;1.65;;;;;;;19.85;77.39;101715.22;5011261;28;20030;-65
2022/07/18 05:38:20;;;;;;;2.35;1.55;;;;;;;20.04;76.73;101723.81;5010394;28;20065;-65
2022/07/18 05:40:46;;;;;;;2.70;1.40;;;;;;;20.22;75.84;101729.28;5010336;28;20026;-65
2022/07/18 05:43:11;;;;;;;1.77;1.10;;;;;;;20.26;76.20;101735.53;5011193;28;20767;-65
2022/07/18 05:45:37;;;;;;;2.28;1.30;;;;;;;20.36;76.03;101735.50;5011017;28;20030;-65
2022/07/18 05:48:03;;;;;;;2.13;1.25;;;;;;;20.33;76.15;101730.03;5010093;28;20095;-65
2022/07/18 05:50:29;;;;;;;3.97;1.48;;;;;;;20.30;76.12;101731.63;5010543;28;20014;-65
2022/07/18 05:52:54;;;;;;;4.00;1.27;;;;;;;20.37;76.10;101739.03;5010759;28;20034;-65
2022/07/18 05:55:20;;;;;;;2.38;1.45;;;;;;;20.42;75.25;101733.94;5010513;28;20037;-65
2022/07/18 05:57:46;;;;;;;4.40;1.42;;;;;;;20.45;74.52;101726.91;5010007;28;20069;-65
2022/07/18 06:00:13;;;;;;;3.50;1.58;;;;;;;20.45;74.58;101733.16;5013037;28;20025;-65
2022/07/18 06:02:42;;;;;;;1.85;1.20;;;;;;;20.45;75.35;101733.16;5011859;28;20422;-65
2022/07/18 06:05:28;;;;;;;1.40;0.93;;;;;;;20.55;75.23;101735.09;5014675;28;20030;-65
2022/07/18 06:07:55;;;;;;;1.35;1.10;;;;;;;20.63;75.44;101744.06;4933071;29;20122;-65
2022/07/18 06:10:22;;;;;;;1.92;1.27;;;;;;;20.68;75.41;101740.91;4934508;29;20444;-65
2022/07/18 06:12:49;;;;;;;1.45;1.20;;;;;;;20.82;75.07;101743.59;4934192;29;20052;-65
2022/07/18 06:15:15;;;;;;;1.98;1.13;;;;;;;20.86;74.09;101749.84;4934036;29;20039;-65
2022/07/18 06:17:41;;;;;;;4.53;1.55;;;;;;;21.01;73.92;101758.78;4933401;29;20047;-65
2022/07/18 06:20:07;;;;;;;3.13;1.40;;;;;;;21.14;73.17;101754.41;4934355;29;20051;-65
2022/07/18 06:22:34;;;;;;;3.20;1.70;;;;;;;21.24;72.76;101753.59;4933888;29;20063;-65
2022/07/18 06:25:00;;;;;;;2.08;1.20;;;;;;;21.34;72.16;101744.53;4934158;29;20137;-65
2022/07/18 06:27:25;;;;;;;2.35;1.40;;;;;;;21.20;71.54;101733.63;4933471;29;20191;-65
2022/07/18 06:29:51;;;;;;;3.53;1.30;;;;;;;21.43;70.97;101728.41;4934230;29;20040;-65
2022/07/18 06:32:16;;;;;;;1.77;1.25;;;;;;;21.32;69.93;101736.72;4933648;29;20059;-65
2022/07/18 06:34:42;;;;;;;1.67;1.30;;;;;;;21.12;70.06;101734.84;4934155;29;20043;-65
2022/07/18 06:37:08;;;;;;;2.47;1.15;;;;;;;21.38;70.88;101729.63;4934215;29;20564;-65
2022/07/18 06:39:33;;;;;;;1.83;1.40;;;;;;;21.58;68.91;101727.13;4932425;29;20043;-65
2022/07/18 06:41:59;;;;;;;2.25;1.40;;;;;;;21.75;68.65;101728.97;4933156;29;20407;-65
2022/07/18 06:44:24;;;;;;;3.35;1.40;;;;;;;22.00;68.51;101737.78;4949028;28;20042;-65
2022/07/18 06:46:51;;;;;;;2.40;1.38;;;;;;;22.15;66.92;101727.44;4994244;28;20117;-65
2022/07/18 06:49:18;;;;;;;2.35;1.35;;;;;;;22.36;66.36;101728.00;4998523;28;20394;-65
2022/07/18 06:51:43;;;;;;;3.17;1.20;;;;;;;22.60;66.38;101731.69;5013513;28;20033;-65
2022/07/18 06:54:09;;;;;;;2.33;1.25;;;;;;;22.82;66.31;101735.72;5013398;28;20092;-65
2022/07/18 06:56:35;;;;;;;2.13;1.20;;;;;;;23.03;66.73;101731.94;5013599;28;20029;-66
2022/07/18 06:59:00;;;;;;;1.75;1.10;;;;;;;23.17;64.60;101727.00;5011692;28;20080;-65
2022/07/18 07:01:26;;;;;;;3.13;1.20;;;;;;;23.11;65.05;101717.66;5013929;28;20374;-65
2022/07/18 07:03:52;;;;;;;2.70;1.48;;;;;;;23.29;64.05;101726.44;5010800;28;20037;-65
2022/07/18 07:06:17;;;;;;;2.40;1.52;;;;;;;23.36;60.84;101722.06;5012746;28;20045;-65
2022/07/18 07:08:44;;;;;;;2.80;1.30;;;;;;;23.20;61.61;101720.69;5012445;28;20026;-65
2022/07/18 07:11:09;;;;;;;3.80;1.85;;;;;;;23.28;61.40;101724.13;5012548;28;20124;-65
2022/07/18 07:13:35;;;;;;;2.83;1.48;;;;;;;23.21;62.05;101715.97;5013246;28;20169;-65
2022/07/18 07:16:01;;;;;;;2.38;1.60;;;;;;;23.25;62.10;101722.97;5012538;28;20034;-65
2022/07/18 07:18:26;;;;;;;1.98;1.40;;;;;;;23.26;62.17;101723.75;5012443;28;20620;-65
2022/07/18 07:20:52;;;;;;;2.60;1.38;;;;;;;23.36;62.28;101722.06;5013039;28;20022;-65
2022/07/18 07:23:17;;;;;;;3.83;1.45;;;;;;;23.51;61.87;101729.69;5012931;28;20057;-65
2022/07/18 07:25:43;;;;;;;2.25;1.33;;;;;;;23.55;62.85;101724.91;5001453;28;20042;-65
2022/07/18 07:28:09;;;;;;;3.75;1.50;;;;;;;23.72;61.58;101723.84;4992197;28;20031;-65
2022/07/18 07:30:35;;;;;;;4.57;1.42;;;;;;;23.83;61.29;101707.94;4993476;28;20117;-65
2022/07/18 07:33:01;;;;;;;2.60;1.42;;;;;;;23.56;61.02;101717.41;4993328;28;20045;-65
2022/07/18 07:35:28;;;;;;;1.98;1.60;;;;;;;23.85;60.51;101719.31;5011963;28;20128;-65
2022/07/18 07:37:56;;;;;;;2.92;1.65;;;;;;;24.18;60.28;101721.09;5011423;28;20125;-66
2022/07/18 07:40:24;;;;;;;2.00;1.38;;;;;;;24.46;60.04;101725.31;5012536;28;20033;-65
2022/07/18 07:42:51;;;;;;;1.73;1.10;;;;;;;24.71;58.64;101719.28;5005284;28;20101;-65
2022/07/18 07:45:17;;;;;;;2.80;1.50;;;;;;;24.89;58.46;101722.47;4993191;28;20048;-65
2022/07/18 07:47:43;;;;;;;3.17;1.55;;;;;;;24.96;58.15;101719.56;4992330;28;20114;-65
2022/07/18 07:50:11;;;;;;;2.10;1.40;;;;;;;24.97;59.17;101723.88;4993420;28;20443;-65
2022/07/18 07:52:37;;;;;;;2.60;1.27;;;;;;;25.11;57.78;101717.25;4992475;28;20035;-65
2022/07/18 07:55:04;;;;;;;2.00;1.20;;;;;;;24.82;57.03;101715.13;4992656;28;20038;-65
2022/07/18 07:57:30;;;;;;;4.05;1.67;;;;;;;24.65;59.07;101705.22;4991926;28;20046;-65
2022/07/18 07:59:56;;;;;;;2.95;1.70;;;;;;;24.96;58.30;101716.81;5004590;28;20026;-65
2022/07/18 08:02:21;;;;;;;3.30;1.60;;;;;;;25.11;58.44;101720.78;5011037;28;20049;-65
2022/07/18 08:04:47;;;;;;;5.10;1.60;;;;;;;25.16;57.87;101725.03;5009941;28;20084;-65
2022/07/18 08:07:12;;;;;;;2.88;1.20;;;;;;;24.85;57.12;101717.03;5011555;28;20040;-65
2022/07/18 08:09:38;;;;;;;2.33;1.30;;;;;;;24.90;58.02;101707.47;5011621;28;20487;-65
2022/07/18 08:12:04;;;;;;;2.33;1.50;;;;;;;25.08;58.24;101701.56;5012089;28;20038;-65
2022/07/18 08:14:32;;;;;;;3.45;1.67;;;;;;;25.53;58.37;101695.00;5012179;28;20026;-65
2022/07/18 08:16:58;;;;;;;2.15;1.40;;;;;;;25.88;55.77;101696.84;4997790;28;20035;-65
2022/07/18 08:19:23;;;;;;;3.25;1.90;;;;;;;26.02;53.93;101692.94;4991413;28;20069;-66
2022/07/18 08:21:49;;;;;;;3.28;1.48;;;;;;;26.29;52.77;101695.41;4991675;28;20053;-65
2022/07/18 08:24:14;;;;;;;2.55;1.70;;;;;;;26.17;51.83;101688.63;4996827;28;20030;-66
2022/07/18 08:26:40;;;;;;;2.83;1.63;;;;;;;26.44;52.48;101697.31;5012080;28;20439;-65
2022/07/18 08:29:06;;;;;;;2.90;1.60;;;;;;;26.30;51.66;101689.47;5011269;28;20033;-65
2022/07/18 08:31:32;;;;;;;1.67;1.30;;;;;;;26.00;50.21;101684.31;4994041;28;20057;-66
2022/07/18 08:33:58;;;;;;;2.63;1.65;;;;;;;25.90;52.19;101688.13;5010591;28;20061;-65
2022/07/18 08:36:24;;;;;;;4.63;1.58;;;;;;;26.35;53.19;101693.66;5010804;28;20048;-65
2022/07/18 08:38:50;;;;;;;3.10;1.80;;;;;;;26.75;52.66;101700.44;5010899;28;20548;-65
2022/07/18 08:41:22;;;;;;;2.42;1.63;;;;;;;27.05;50.12;101696.34;5010928;28;20121;-65
2022/07/18 08:43:48;;;;;;;2.95;1.70;;;;;;;27.29;48.50;101684.50;5011904;28;20046;-65
2022/07/18 08:46:21;;;;;;;2.58;1.60;;;;;;;27.38;48.91;101689.41;5011433;28;20029;-65
2022/07/18 08:48:51;;;;;;;3.47;2.00;;;;;;;27.48;48.22;101683.53;5009749;28;20030;-65
2022/07/18 08:51:18;;;;;;;3.35;1.90;;;;;;;27.60;47.82;101682.69;5011605;28;20034;-66
2022/07/18 08:53:46;;;;;;;2.97;1.55;;;;;;;27.70;48.52;101675.25;5011562;28;20108;-65
2022/07/18 08:56:12;;;;;;;3.88;2.10;;;;;;;27.69;48.75;101665.41;5011238;28;20080;-65
2022/07/18 08:58:37;;;;;;;3.30;1.70;;;;;;;26.50;48.29;101659.66;5010069;28;20022;-65
2022/07/18 09:01:03;;;;;;;3.60;2.10;;;;;;;27.00;48.13;101658.97;5011377;28;20129;-65
2022/07/18 09:03:29;;;;;;;4.53;2.10;;;;;;;26.62;47.68;101653.38;5008400;28;20030;-66
2022/07/18 09:06:06;;;;;;;4.78;1.90;;;;;;;26.46;48.57;101652.69;5010900;28;20034;-65
2022/07/18 09:08:33;;;;;;;4.03;2.05;;;;;;;26.77;48.16;101664.81;5010069;28;20041;-65
2022/07/18 09:11:00;;;;;;;4.22;2.10;;;;;;;27.11;46.88;101653.88;5010993;28;20018;-65
2022/07/18 09:13:37;;;;;;;5.95;2.10;;;;;;;27.37;45.57;101660.19;5011195;28;20042;-65
2022/07/18 09:16:06;;;;;;;2.85;1.77;;;;;;;27.53;47.04;101660.81;5011445;28;20037;-65
2022/07/18 09:18:36;;;;;;;3.47;1.90;;;;;;;27.99;47.30;101653.69;5009834;28;20032;-66
2022/07/18 09:21:06;;;;;;;4.63;2.05;;;;;;;28.00;46.53;101652.47;5010999;28;20091;-66
2022/07/18 09:23:34;;;;;;;4.00;1.83;;;;;;;28.05;46.93;101657.44;5011062;28;20038;-66
2022/07/18 09:26:00;;;;;;;4.45;1.67;;;;;;;28.30;47.10;101654.53;5010581;28;20080;-66
2022/07/18 09:28:27;;;;;;;4.10;2.13;;;;;;;27.57;46.69;101653.16;5009920;28;20096;-66
2022/07/18 09:30:53;;;;;;;3.58;2.03;;;;;;;27.59;47.61;101639.63;5011005;28;20422;-66
2022/07/18 09:33:20;;;;;;;2.45;1.63;;;;;;;27.42;48.43;101643.78;5009210;28;20068;-66
2022/07/18 09:35:52;;;;;;;3.97;2.00;;;;;;;27.82;47.08;101654.28;4995684;28;20034;-66
2022/07/18 09:38:23;;;;;;;3.28;1.63;;;;;;;28.04;47.00;101652.34;4994693;28;20076;-66
2022/07/18 09:43:23;;;;;;;2.45;1.17;;;;;;;28.85;46.74;101657.63;5011255;28;19928;-65
2022/07/18 09:45:51;;;;;;;3.85;1.65;;;;;;;28.93;46.11;101668.00;5015153;28;20037;-64
2022/07/18 09:48:25;;;;;;;3.45;1.98;;;;;;;28.85;44.12;101663.16;5014052;28;20049;-64
2022/07/18 09:50:58;;;;;;;6.00;2.17;;;;;;;28.88;45.12;101671.34;5014438;28;20030;-64
2022/07/18 09:53:37;;;;;;;4.95;2.03;;;;;;;28.84;44.54;101670.72;5014483;28;20037;-64
2022/07/18 09:56:09;;;;;;;3.08;1.83;;;;;;;29.14;44.45;101678.28;5014891;28;20038;-64
2022/07/18 09:58:55;;;;;;;6.65;2.45;;;;;;;29.49;44.34;101672.50;5013376;28;20037;-64
2022/07/18 10:01:21;;;;;;;2.45;1.60;;;;;;;29.68;45.59;101674.84;5014538;28;20038;-64
2022/07/18 10:03:50;;;;;;;4.00;2.05;;;;;;;29.34;43.21;101680.66;5012591;28;20037;-65
2022/07/18 10:06:18;;;;;;;7.70;2.00;;;;;;;28.77;44.55;101673.78;5014311;28;20148;-64
2022/07/18 10:08:43;;;;;;;3.28;1.65;;;;;;;29.19;44.65;101676.91;5013518;28;20113;-64
2022/07/18 10:11:10;;;;;;;5.75;1.83;;;;;;;29.50;43.51;101680.38;5014628;28;20579;-64
2022/07/18 10:13:37;;;;;;;2.55;1.65;;;;;;;29.59;44.14;101685.97;5014196;28;20509;-64
2022/07/18 10:16:04;;;;;;;3.05;1.60;;;;;;;29.71;43.15;101692.63;5007484;28;20049;-64
2022/07/18 10:18:32;;;;;;;3.95;2.10;;;;;;;29.67;43.25;101689.19;4993248;28;20514;-64
2022/07/18 10:21:09;;;;;;;3.15;1.95;;;;;;;29.72;42.92;101689.38;4994751;28;20070;-64
2022/07/18 10:23:41;;;;;;;4.50;1.58;;;;;;;29.78;41.74;101684.78;5008103;28;20034;-64
2022/07/18 10:26:15;;;;;;;2.67;1.60;;;;;;;29.47;43.23;101674.97;5013892;28;20160;-64
2022/07/18 10:28:56;;;;;;;4.60;1.85;;;;;;;29.27;43.68;101675.38;5013147;28;20038;-64
2022/07/18 10:31:36;;;;;;;2.58;1.27;;;;;;;29.46;43.85;101677.00;5013954;28;20026;-64
2022/07/18 10:34:11;;;;;;;3.58;1.70;;;;;;;29.58;44.72;101666.97;5014164;28;20034;-64
2022/07/18 10:36:49;;;;;;;2.30;1.40;;;;;;;29.66;44.51;101676.53;5014317;28;20529;-64
2022/07/18 10:39:20;;;;;;;4.70;1.60;;;;;;;29.52;43.54;101666.03;5012745;28;20096;-64
2022/07/18 10:41:46;;;;;;;3.15;1.65;;;;;;;29.63;42.84;101663.56;5010987;28;20548;-64
2022/07/18 10:44:26;;;;;;;3.47;1.50;;;;;;;29.96;42.14;101664.56;4993832;28;20034;-64
2022/07/18 10:49:59;;;;;;;8.45;1.80;;;;;;;30.40;41.55;101634.38;4981305;28;20042;-64
2022/07/18 10:52:24;;;;;;;2.83;1.77;;;;;;;30.72;40.41;101622.53;4994529;28;20117;-64
2022/07/18 10:57:32;;;;;;;3.33;1.40;;;;;;;30.96;40.98;101645.63;4993235;28;20487;-64
2022/07/18 11:00:13;;;;;;;4.68;2.10;;;;;;;30.83;40.32;101656.22;4997096;28;20060;-64
2022/07/18 11:02:43;;;;;;;2.65;1.60;;;;;;;31.07;41.08;101668.16;5011392;28;20056;-65
2022/07/18 11:05:27;;;;;;;3.25;1.67;;;;;;;31.27;41.09;101660.00;5013520;28;20030;-65
2022/07/18 11:08:01;;;;;;;2.88;1.70;;;;;;;30.95;39.95;101642.09;5012541;28;20042;-64
2022/07/18 11:10:46;;;;;;;4.20;1.90;;;;;;;30.79;40.09;101639.66;5013228;28;20088;-64
2022/07/18 11:13:32;;;;;;;3.30;1.80;;;;;;;30.47;39.88;101637.59;4995839;28;20115;-65
2022/07/18 11:16:07;;;;;;;3.53;1.95;;;;;;;30.53;40.85;101632.16;5013447;28;20109;-64
2022/07/18 11:18:55;;;;;;;4.63;1.80;;;;;;;30.66;41.04;101629.97;5011975;28;20034;-64
2022/07/18 11:21:29;;;;;;;3.67;1.98;;;;;;;30.61;41.43;101625.03;5012631;28;20087;-65
2022/07/18 11:24:10;;;;;;;2.65;1.60;;;;;;;30.72;41.63;101622.53;5012966;28;20163;-65
2022/07/18 11:26:38;;;;;;;2.90;1.57;;;;;;;30.18;40.51;101609.53;5013184;28;20402;-65
2022/07/18 11:29:09;;;;;;;2.60;1.50;;;;;;;30.23;40.92;101608.91;5011857;28;20037;-64
2022/07/18 11:31:52;;;;;;;5.03;1.70;;;;;;;30.41;40.71;101602.56;5013039;28;20033;-64
2022/07/18 11:34:18;;;;;;;3.15;1.88;;;;;;;30.44;42.24;101612.75;5012702;28;20486;-65
2022/07/18 11:36:46;;;;;;;4.47;1.70;;;;;;;29.92;41.08;101611.13;5012725;28;20458;-65